sensor_id;sensor_type;location;lat;lon;timestamp;P1;durP1;ratioP1;P2;durP2;ratioP2
68987;SDS011;56038;46.080;11.116;2023-11-21T00:03:01;11.18;;;8.50;;
68987;SDS011;56038;46.080;11.116;2023-11-21T00:08:04;12.10;;;8.90;;
68987;SDS011;56038;46.080;11.116;2023-11-21T00:13:06;11.40;;;8.93;;
68987;SDS011;56038;46.080;11.116;2023-11-21T00:18:09;9.13;;;8.05;;
68987;SDS011;56038;46.080;11.116;2023-11-21T00:23:11;11.52;;;8.63;;
68987;SDS011;56038;46.080;11.116;2023-11-21T00:28:13;13.18;;;10.05;;
68987;SDS011;56038;46.080;11.116;2023-11-21T00:33:16;13.45;;;9.90;;
68987;SDS011;56038;46.080;11.116;2023-11-21T00:38:18;10.48;;;8.23;;
68987;SDS011;56038;46.080;11.116;2023-11-21T00:43:20;8.43;;;7.55;;
68987;SDS011;56038;46.080;11.116;2023-11-21T00:48:24;15.80;;;9.88;;
68987;SDS011;56038;46.080;11.116;2023-11-21T00:53:26;9.30;;;7.80;;
68987;SDS011;56038;46.080;11.116;2023-11-21T00:58:28;12.65;;;9.80;;
68987;SDS011;56038;46.080;11.116;2023-11-21T01:03:32;9.85;;;7.80;;
68987;SDS011;56038;46.080;11.116;2023-11-21T01:08:34;12.35;;;9.75;;
68987;SDS011;56038;46.080;11.116;2023-11-21T01:13:36;10.32;;;7.90;;
68987;SDS011;56038;46.080;11.116;2023-11-21T01:18:39;10.65;;;9.13;;
68987;SDS011;56038;46.080;11.116;2023-11-21T01:23:40;12.00;;;10.38;;
68987;SDS011;56038;46.080;11.116;2023-11-21T01:28:42;9.57;;;8.25;;
68987;SDS011;56038;46.080;11.116;2023-11-21T01:33:45;10.35;;;8.98;;
68987;SDS011;56038;46.080;11.116;2023-11-21T01:38:47;10.20;;;8.05;;
68987;SDS011;56038;46.080;11.116;2023-11-21T01:43:49;9.57;;;7.38;;
68987;SDS011;56038;46.080;11.116;2023-11-21T01:48:52;11.57;;;8.70;;
68987;SDS011;56038;46.080;11.116;2023-11-21T01:53:55;9.00;;;7.90;;
68987;SDS011;56038;46.080;11.116;2023-11-21T01:58:57;8.85;;;7.85;;
68987;SDS011;56038;46.080;11.116;2023-11-21T02:04:00;9.55;;;6.82;;
68987;SDS011;56038;46.080;11.116;2023-11-21T02:09:01;9.82;;;7.68;;
68987;SDS011;56038;46.080;11.116;2023-11-21T02:14:04;9.55;;;8.02;;
68987;SDS011;56038;46.080;11.116;2023-11-21T02:19:10;9.35;;;8.35;;
68987;SDS011;56038;46.080;11.116;2023-11-21T02:24:19;11.02;;;7.68;;
68987;SDS011;56038;46.080;11.116;2023-11-21T02:29:21;9.48;;;8.48;;
68987;SDS011;56038;46.080;11.116;2023-11-21T02:34:27;9.77;;;7.68;;
68987;SDS011;56038;46.080;11.116;2023-11-21T02:39:31;12.32;;;8.07;;
68987;SDS011;56038;46.080;11.116;2023-11-21T02:44:32;11.10;;;7.43;;
68987;SDS011;56038;46.080;11.116;2023-11-21T02:49:34;9.32;;;7.90;;
68987;SDS011;56038;46.080;11.116;2023-11-21T02:54:38;11.05;;;8.10;;
68987;SDS011;56038;46.080;11.116;2023-11-21T02:59:39;9.68;;;6.40;;
68987;SDS011;56038;46.080;11.116;2023-11-21T03:04:41;9.15;;;6.72;;
68987;SDS011;56038;46.080;11.116;2023-11-21T03:09:45;9.18;;;6.00;;
68987;SDS011;56038;46.080;11.116;2023-11-21T03:14:47;9.57;;;7.75;;
68987;SDS011;56038;46.080;11.116;2023-11-21T03:19:48;9.27;;;7.32;;
68987;SDS011;56038;46.080;11.116;2023-11-21T03:24:52;7.53;;;6.60;;
68987;SDS011;56038;46.080;11.116;2023-11-21T03:29:53;9.30;;;6.40;;
68987;SDS011;56038;46.080;11.116;2023-11-21T03:34:56;8.05;;;6.55;;
68987;SDS011;56038;46.080;11.116;2023-11-21T03:40:00;8.02;;;6.93;;
68987;SDS011;56038;46.080;11.116;2023-11-21T03:45:04;7.77;;;6.23;;
68987;SDS011;56038;46.080;11.116;2023-11-21T03:50:07;7.40;;;6.47;;
68987;SDS011;56038;46.080;11.116;2023-11-21T03:55:12;6.95;;;5.75;;
68987;SDS011;56038;46.080;11.116;2023-11-21T04:00:15;6.15;;;5.53;;
68987;SDS011;56038;46.080;11.116;2023-11-21T04:05:17;7.78;;;6.30;;
68987;SDS011;56038;46.080;11.116;2023-11-21T04:10:20;6.75;;;6.07;;
68987;SDS011;56038;46.080;11.116;2023-11-21T04:15:22;6.70;;;5.68;;
68987;SDS011;56038;46.080;11.116;2023-11-21T04:20:24;8.90;;;5.85;;
68987;SDS011;56038;46.080;11.116;2023-11-21T04:25:27;6.43;;;5.68;;
68987;SDS011;56038;46.080;11.116;2023-11-21T04:30:29;6.60;;;5.07;;
68987;SDS011;56038;46.080;11.116;2023-11-21T04:35:31;7.78;;;6.03;;
68987;SDS011;56038;46.080;11.116;2023-11-21T04:40:34;6.78;;;5.72;;
68987;SDS011;56038;46.080;11.116;2023-11-21T04:45:36;8.75;;;6.70;;
68987;SDS011;56038;46.080;11.116;2023-11-21T04:50:37;7.05;;;5.45;;
68987;SDS011;56038;46.080;11.116;2023-11-21T04:55:40;7.65;;;6.18;;
68987;SDS011;56038;46.080;11.116;2023-11-21T05:00:42;8.15;;;6.80;;
68987;SDS011;56038;46.080;11.116;2023-11-21T05:05:44;7.55;;;5.93;;
68987;SDS011;56038;46.080;11.116;2023-11-21T05:10:47;9.18;;;5.40;;
68987;SDS011;56038;46.080;11.116;2023-11-21T05:15:49;6.82;;;6.13;;
68987;SDS011;56038;46.080;11.116;2023-11-21T05:20:51;6.07;;;5.05;;
68987;SDS011;56038;46.080;11.116;2023-11-21T05:25:55;7.38;;;5.03;;
68987;SDS011;56038;46.080;11.116;2023-11-21T05:30:57;6.28;;;5.15;;
68987;SDS011;56038;46.080;11.116;2023-11-21T05:35:58;6.13;;;5.35;;
68987;SDS011;56038;46.080;11.116;2023-11-21T05:41:01;8.23;;;5.70;;
68987;SDS011;56038;46.080;11.116;2023-11-21T05:46:03;7.28;;;5.60;;
68987;SDS011;56038;46.080;11.116;2023-11-21T05:51:07;6.07;;;4.60;;
68987;SDS011;56038;46.080;11.116;2023-11-21T05:56:10;6.45;;;5.38;;
68987;SDS011;56038;46.080;11.116;2023-11-21T06:01:13;8.98;;;6.55;;
68987;SDS011;56038;46.080;11.116;2023-11-21T06:06:15;4.97;;;4.50;;
68987;SDS011;56038;46.080;11.116;2023-11-21T06:11:18;8.52;;;5.75;;
68987;SDS011;56038;46.080;11.116;2023-11-21T06:16:20;6.50;;;5.25;;
68987;SDS011;56038;46.080;11.116;2023-11-21T06:21:22;5.50;;;4.85;;
68987;SDS011;56038;46.080;11.116;2023-11-21T06:26:25;8.10;;;5.15;;
68987;SDS011;56038;46.080;11.116;2023-11-21T06:31:28;8.85;;;5.38;;
68987;SDS011;56038;46.080;11.116;2023-11-21T06:36:32;8.13;;;5.38;;
68987;SDS011;56038;46.080;11.116;2023-11-21T06:41:35;5.18;;;4.43;;
68987;SDS011;56038;46.080;11.116;2023-11-21T06:46:39;6.45;;;4.93;;
68987;SDS011;56038;46.080;11.116;2023-11-21T06:51:42;5.57;;;4.60;;
68987;SDS011;56038;46.080;11.116;2023-11-21T06:56:45;6.68;;;5.57;;
68987;SDS011;56038;46.080;11.116;2023-11-21T07:01:49;8.15;;;5.78;;
68987;SDS011;56038;46.080;11.116;2023-11-21T07:06:51;7.68;;;5.20;;
68987;SDS011;56038;46.080;11.116;2023-11-21T07:11:54;6.00;;;5.25;;
68987;SDS011;56038;46.080;11.116;2023-11-21T07:16:57;6.05;;;5.45;;
68987;SDS011;56038;46.080;11.116;2023-11-21T07:21:58;7.10;;;5.38;;
68987;SDS011;56038;46.080;11.116;2023-11-21T07:27:02;5.85;;;4.75;;
68987;SDS011;56038;46.080;11.116;2023-11-21T07:32:04;4.88;;;4.15;;
68987;SDS011;56038;46.080;11.116;2023-11-21T07:37:06;5.85;;;4.72;;
68987;SDS011;56038;46.080;11.116;2023-11-21T07:42:10;5.10;;;4.60;;
68987;SDS011;56038;46.080;11.116;2023-11-21T07:47:12;4.90;;;4.28;;
68987;SDS011;56038;46.080;11.116;2023-11-21T07:52:13;8.45;;;4.93;;
68987;SDS011;56038;46.080;11.116;2023-11-21T07:57:17;5.65;;;4.25;;
68987;SDS011;56038;46.080;11.116;2023-11-21T08:02:19;7.78;;;4.82;;
68987;SDS011;56038;46.080;11.116;2023-11-21T08:07:21;7.50;;;5.70;;
68987;SDS011;56038;46.080;11.116;2023-11-21T08:12:24;5.82;;;5.10;;
68987;SDS011;56038;46.080;11.116;2023-11-21T08:17:27;9.57;;;5.95;;
68987;SDS011;56038;46.080;11.116;2023-11-21T08:22:29;5.95;;;5.45;;
68987;SDS011;56038;46.080;11.116;2023-11-21T08:27:33;5.32;;;4.72;;
68987;SDS011;56038;46.080;11.116;2023-11-21T08:32:35;6.05;;;5.22;;
68987;SDS011;56038;46.080;11.116;2023-11-21T08:37:39;6.22;;;5.07;;
68987;SDS011;56038;46.080;11.116;2023-11-21T08:42:43;6.57;;;5.03;;
68987;SDS011;56038;46.080;11.116;2023-11-21T08:47:46;5.60;;;5.00;;
68987;SDS011;56038;46.080;11.116;2023-11-21T08:52:47;8.00;;;5.20;;
68987;SDS011;56038;46.080;11.116;2023-11-21T08:57:51;7.00;;;6.13;;
68987;SDS011;56038;46.080;11.116;2023-11-21T09:02:53;5.20;;;4.70;;
68987;SDS011;56038;46.080;11.116;2023-11-21T09:07:54;5.53;;;4.70;;
68987;SDS011;56038;46.080;11.116;2023-11-21T09:12:58;6.15;;;5.38;;
68987;SDS011;56038;46.080;11.116;2023-11-21T09:18:00;6.30;;;4.85;;
68987;SDS011;56038;46.080;11.116;2023-11-21T09:23:02;8.38;;;5.88;;
68987;SDS011;56038;46.080;11.116;2023-11-21T09:28:05;6.45;;;4.60;;
68987;SDS011;56038;46.080;11.116;2023-11-21T09:33:08;5.22;;;4.40;;
68987;SDS011;56038;46.080;11.116;2023-11-21T09:38:10;5.00;;;3.90;;
68987;SDS011;56038;46.080;11.116;2023-11-21T09:43:15;8.00;;;5.15;;
68987;SDS011;56038;46.080;11.116;2023-11-21T09:48:18;5.55;;;4.32;;
68987;SDS011;56038;46.080;11.116;2023-11-21T09:53:22;6.72;;;4.68;;
68987;SDS011;56038;46.080;11.116;2023-11-21T09:58:26;4.50;;;3.70;;
68987;SDS011;56038;46.080;11.116;2023-11-21T10:03:28;4.75;;;4.13;;
68987;SDS011;56038;46.080;11.116;2023-11-21T10:08:30;5.97;;;3.92;;
68987;SDS011;56038;46.080;11.116;2023-11-21T10:13:35;5.35;;;4.03;;
68987;SDS011;56038;46.080;11.116;2023-11-21T10:18:37;6.50;;;4.70;;
68987;SDS011;56038;46.080;11.116;2023-11-21T10:23:40;6.18;;;4.50;;
68987;SDS011;56038;46.080;11.116;2023-11-21T10:28:55;6.07;;;3.78;;
68987;SDS011;56038;46.080;11.116;2023-11-21T10:34:11;4.38;;;3.95;;
68987;SDS011;56038;46.080;11.116;2023-11-21T10:39:14;5.30;;;4.80;;
68987;SDS011;56038;46.080;11.116;2023-11-21T10:44:20;6.70;;;4.00;;
68987;SDS011;56038;46.080;11.116;2023-11-21T10:49:24;4.80;;;4.40;;
68987;SDS011;56038;46.080;11.116;2023-11-21T10:54:27;4.72;;;4.28;;
68987;SDS011;56038;46.080;11.116;2023-11-21T10:59:31;5.00;;;4.40;;
68987;SDS011;56038;46.080;11.116;2023-11-21T11:04:32;5.22;;;4.40;;
68987;SDS011;56038;46.080;11.116;2023-11-21T11:09:38;11.20;;;7.88;;
68987;SDS011;56038;46.080;11.116;2023-11-21T11:14:41;6.32;;;5.32;;
68987;SDS011;56038;46.080;11.116;2023-11-21T11:19:45;5.28;;;4.47;;
68987;SDS011;56038;46.080;11.116;2023-11-21T11:24:56;4.97;;;4.50;;
68987;SDS011;56038;46.080;11.116;2023-11-21T11:30:19;4.87;;;4.47;;
68987;SDS011;56038;46.080;11.116;2023-11-21T11:35:41;4.68;;;3.92;;
68987;SDS011;56038;46.080;11.116;2023-11-21T11:40:48;4.10;;;3.30;;
68987;SDS011;56038;46.080;11.116;2023-11-21T11:45:56;5.10;;;4.60;;
68987;SDS011;56038;46.080;11.116;2023-11-21T11:51:03;5.18;;;3.72;;
68987;SDS011;56038;46.080;11.116;2023-11-21T11:56:25;4.63;;;4.10;;
68987;SDS011;56038;46.080;11.116;2023-11-21T12:01:31;5.00;;;4.50;;
68987;SDS011;56038;46.080;11.116;2023-11-21T12:06:34;4.55;;;4.15;;
68987;SDS011;56038;46.080;11.116;2023-11-21T12:11:36;5.90;;;4.68;;
68987;SDS011;56038;46.080;11.116;2023-11-21T12:16:40;4.85;;;4.30;;
68987;SDS011;56038;46.080;11.116;2023-11-21T12:21:43;7.38;;;4.63;;
68987;SDS011;56038;46.080;11.116;2023-11-21T12:26:45;5.57;;;4.63;;
68987;SDS011;56038;46.080;11.116;2023-11-21T12:31:50;4.93;;;4.43;;
68987;SDS011;56038;46.080;11.116;2023-11-21T12:36:51;5.25;;;4.75;;
68987;SDS011;56038;46.080;11.116;2023-11-21T12:41:54;4.78;;;4.38;;
68987;SDS011;56038;46.080;11.116;2023-11-21T12:46:58;4.93;;;4.43;;
68987;SDS011;56038;46.080;11.116;2023-11-21T12:52:01;5.45;;;4.53;;
68987;SDS011;56038;46.080;11.116;2023-11-21T12:57:04;5.50;;;4.57;;
68987;SDS011;56038;46.080;11.116;2023-11-21T13:02:09;5.88;;;4.70;;
68987;SDS011;56038;46.080;11.116;2023-11-21T13:12:17;4.80;;;4.30;;
68987;SDS011;56038;46.080;11.116;2023-11-21T13:17:26;5.50;;;4.75;;
68987;SDS011;56038;46.080;11.116;2023-11-21T13:22:28;5.00;;;4.50;;
68987;SDS011;56038;46.080;11.116;2023-11-21T13:27:31;5.43;;;4.93;;
68987;SDS011;56038;46.080;11.116;2023-11-21T13:32:35;4.60;;;4.20;;
68987;SDS011;56038;46.080;11.116;2023-11-21T13:37:37;8.25;;;5.28;;
68987;SDS011;56038;46.080;11.116;2023-11-21T13:42:39;8.25;;;4.95;;
68987;SDS011;56038;46.080;11.116;2023-11-21T13:47:45;7.00;;;4.60;;
68987;SDS011;56038;46.080;11.116;2023-11-21T13:52:47;8.02;;;5.35;;
68987;SDS011;56038;46.080;11.116;2023-11-21T13:57:49;5.72;;;4.90;;
68987;SDS011;56038;46.080;11.116;2023-11-21T14:02:54;5.97;;;5.30;;
68987;SDS011;56038;46.080;11.116;2023-11-21T14:08:00;5.80;;;4.93;;
68987;SDS011;56038;46.080;11.116;2023-11-21T14:13:04;5.45;;;4.93;;
68987;SDS011;56038;46.080;11.116;2023-11-21T14:18:08;5.57;;;4.95;;
68987;SDS011;56038;46.080;11.116;2023-11-21T14:23:12;6.95;;;5.82;;
68987;SDS011;56038;46.080;11.116;2023-11-21T14:28:13;7.63;;;5.80;;
68987;SDS011;56038;46.080;11.116;2023-11-21T14:33:17;8.07;;;6.18;;
68987;SDS011;56038;46.080;11.116;2023-11-21T14:38:18;6.30;;;5.70;;
68987;SDS011;56038;46.080;11.116;2023-11-21T14:43:20;8.82;;;6.55;;
68987;SDS011;56038;46.080;11.116;2023-11-21T14:48:24;7.40;;;5.95;;
68987;SDS011;56038;46.080;11.116;2023-11-21T14:53:42;9.55;;;6.10;;
68987;SDS011;56038;46.080;11.116;2023-11-21T14:58:54;8.98;;;5.63;;
68987;SDS011;56038;46.080;11.116;2023-11-21T15:03:58;8.45;;;6.13;;
68987;SDS011;56038;46.080;11.116;2023-11-21T15:09:00;6.80;;;5.60;;
68987;SDS011;56038;46.080;11.116;2023-11-21T15:14:15;6.90;;;6.17;;
68987;SDS011;56038;46.080;11.116;2023-11-21T15:19:25;7.55;;;6.40;;
68987;SDS011;56038;46.080;11.116;2023-11-21T15:24:28;6.55;;;5.82;;
68987;SDS011;56038;46.080;11.116;2023-11-21T15:29:30;7.53;;;6.47;;
68987;SDS011;56038;46.080;11.116;2023-11-21T15:34:36;9.13;;;6.57;;
68987;SDS011;56038;46.080;11.116;2023-11-21T15:39:38;8.93;;;6.50;;
68987;SDS011;56038;46.080;11.116;2023-11-21T15:44:40;8.98;;;6.32;;
68987;SDS011;56038;46.080;11.116;2023-11-21T15:49:43;7.80;;;6.30;;
68987;SDS011;56038;46.080;11.116;2023-11-21T15:54:46;6.45;;;5.72;;
68987;SDS011;56038;46.080;11.116;2023-11-21T15:59:48;12.93;;;6.72;;
68987;SDS011;56038;46.080;11.116;2023-11-21T16:04:51;8.38;;;6.53;;
68987;SDS011;56038;46.080;11.116;2023-11-21T16:09:53;9.43;;;6.75;;
68987;SDS011;56038;46.080;11.116;2023-11-21T16:14:55;9.57;;;6.78;;
68987;SDS011;56038;46.080;11.116;2023-11-21T16:19:58;10.95;;;8.65;;
68987;SDS011;56038;46.080;11.116;2023-11-21T16:25:00;14.18;;;8.50;;
68987;SDS011;56038;46.080;11.116;2023-11-21T16:30:04;9.32;;;7.07;;
68987;SDS011;56038;46.080;11.116;2023-11-21T16:35:10;8.57;;;6.78;;
68987;SDS011;56038;46.080;11.116;2023-11-21T16:40:13;11.07;;;8.30;;
68987;SDS011;56038;46.080;11.116;2023-11-21T16:45:16;14.18;;;10.43;;
68987;SDS011;56038;46.080;11.116;2023-11-21T16:50:19;12.43;;;9.45;;
68987;SDS011;56038;46.080;11.116;2023-11-21T16:55:21;11.45;;;9.32;;
68987;SDS011;56038;46.080;11.116;2023-11-21T17:00:23;9.38;;;8.38;;
68987;SDS011;56038;46.080;11.116;2023-11-21T17:05:27;11.27;;;8.55;;
68987;SDS011;56038;46.080;11.116;2023-11-21T17:10:29;12.23;;;9.70;;
68987;SDS011;56038;46.080;11.116;2023-11-21T17:15:31;15.23;;;10.48;;
68987;SDS011;56038;46.080;11.116;2023-11-21T17:20:34;13.95;;;9.70;;
68987;SDS011;56038;46.080;11.116;2023-11-21T17:25:38;13.88;;;9.07;;
68987;SDS011;56038;46.080;11.116;2023-11-21T17:30:41;12.80;;;9.38;;
68987;SDS011;56038;46.080;11.116;2023-11-21T17:35:44;17.35;;;11.23;;
68987;SDS011;56038;46.080;11.116;2023-11-21T17:40:46;15.02;;;11.05;;
68987;SDS011;56038;46.080;11.116;2023-11-21T17:45:48;16.33;;;10.35;;
68987;SDS011;56038;46.080;11.116;2023-11-21T17:50:53;11.60;;;9.23;;
68987;SDS011;56038;46.080;11.116;2023-11-21T17:55:54;19.27;;;12.27;;
68987;SDS011;56038;46.080;11.116;2023-11-21T18:00:57;14.30;;;12.27;;
68987;SDS011;56038;46.080;11.116;2023-11-21T18:06:00;19.02;;;13.43;;
68987;SDS011;56038;46.080;11.116;2023-11-21T18:11:02;15.50;;;11.43;;
68987;SDS011;56038;46.080;11.116;2023-11-21T18:16:05;18.90;;;11.63;;
68987;SDS011;56038;46.080;11.116;2023-11-21T18:21:08;16.20;;;12.80;;
68987;SDS011;56038;46.080;11.116;2023-11-21T18:26:15;15.68;;;11.77;;
68987;SDS011;56038;46.080;11.116;2023-11-21T18:31:17;17.42;;;13.60;;
68987;SDS011;56038;46.080;11.116;2023-11-21T18:36:21;16.08;;;11.20;;
68987;SDS011;56038;46.080;11.116;2023-11-21T18:41:22;15.73;;;13.07;;
68987;SDS011;56038;46.080;11.116;2023-11-21T18:46:25;20.08;;;13.20;;
68987;SDS011;56038;46.080;11.116;2023-11-21T18:51:28;19.52;;;13.90;;
68987;SDS011;56038;46.080;11.116;2023-11-21T18:56:30;21.70;;;15.25;;
68987;SDS011;56038;46.080;11.116;2023-11-21T19:01:31;22.35;;;15.25;;
68987;SDS011;56038;46.080;11.116;2023-11-21T19:06:35;20.48;;;14.30;;
68987;SDS011;56038;46.080;11.116;2023-11-21T19:11:36;22.23;;;15.25;;
68987;SDS011;56038;46.080;11.116;2023-11-21T19:16:38;20.65;;;14.93;;
68987;SDS011;56038;46.080;11.116;2023-11-21T19:21:41;20.48;;;14.75;;
68987;SDS011;56038;46.080;11.116;2023-11-21T19:26:44;21.35;;;14.85;;
68987;SDS011;56038;46.080;11.116;2023-11-21T19:31:46;20.15;;;14.05;;
68987;SDS011;56038;46.080;11.116;2023-11-21T19:36:50;16.42;;;12.82;;
68987;SDS011;56038;46.080;11.116;2023-11-21T19:41:52;16.67;;;12.60;;
68987;SDS011;56038;46.080;11.116;2023-11-21T19:46:54;14.73;;;10.55;;
68987;SDS011;56038;46.080;11.116;2023-11-21T19:52:00;15.90;;;11.23;;
68987;SDS011;56038;46.080;11.116;2023-11-21T19:57:02;22.90;;;14.38;;
68987;SDS011;56038;46.080;11.116;2023-11-21T20:02:07;14.45;;;9.60;;
68987;SDS011;56038;46.080;11.116;2023-11-21T20:07:13;13.75;;;10.20;;
68987;SDS011;56038;46.080;11.116;2023-11-21T20:12:17;16.48;;;11.73;;
68987;SDS011;56038;46.080;11.116;2023-11-21T20:17:19;19.42;;;12.15;;
68987;SDS011;56038;46.080;11.116;2023-11-21T20:22:23;10.10;;;7.53;;
68987;SDS011;56038;46.080;11.116;2023-11-21T20:27:26;16.40;;;11.70;;
68987;SDS011;56038;46.080;11.116;2023-11-21T20:32:30;14.10;;;9.90;;
68987;SDS011;56038;46.080;11.116;2023-11-21T20:37:33;12.77;;;9.57;;
68987;SDS011;56038;46.080;11.116;2023-11-21T20:42:35;12.75;;;9.43;;
68987;SDS011;56038;46.080;11.116;2023-11-21T20:47:42;13.88;;;10.05;;
68987;SDS011;56038;46.080;11.116;2023-11-21T20:52:45;12.13;;;10.20;;
68987;SDS011;56038;46.080;11.116;2023-11-21T20:57:47;16.23;;;11.13;;
68987;SDS011;56038;46.080;11.116;2023-11-21T21:02:50;13.52;;;9.85;;
68987;SDS011;56038;46.080;11.116;2023-11-21T21:07:54;13.02;;;11.00;;
68987;SDS011;56038;46.080;11.116;2023-11-21T21:12:57;11.68;;;9.20;;
68987;SDS011;56038;46.080;11.116;2023-11-21T21:18:00;12.32;;;8.93;;
68987;SDS011;56038;46.080;11.116;2023-11-21T21:23:06;13.10;;;9.02;;
68987;SDS011;56038;46.080;11.116;2023-11-21T21:28:08;9.82;;;7.93;;
68987;SDS011;56038;46.080;11.116;2023-11-21T21:33:10;11.88;;;9.48;;
68987;SDS011;56038;46.080;11.116;2023-11-21T21:38:13;12.88;;;9.93;;
68987;SDS011;56038;46.080;11.116;2023-11-21T21:43:18;9.93;;;8.40;;
68987;SDS011;56038;46.080;11.116;2023-11-21T21:48:23;13.15;;;10.90;;
68987;SDS011;56038;46.080;11.116;2023-11-21T21:53:26;13.10;;;9.30;;
68987;SDS011;56038;46.080;11.116;2023-11-21T21:58:28;13.77;;;9.38;;
68987;SDS011;56038;46.080;11.116;2023-11-21T22:03:30;12.93;;;9.13;;
68987;SDS011;56038;46.080;11.116;2023-11-21T22:08:33;13.73;;;10.18;;
68987;SDS011;56038;46.080;11.116;2023-11-21T22:13:35;15.13;;;10.18;;
68987;SDS011;56038;46.080;11.116;2023-11-21T22:18:36;15.80;;;10.85;;
68987;SDS011;56038;46.080;11.116;2023-11-21T22:23:40;12.10;;;10.18;;
68987;SDS011;56038;46.080;11.116;2023-11-21T22:28:42;14.23;;;9.45;;
68987;SDS011;56038;46.080;11.116;2023-11-21T22:33:43;10.85;;;8.50;;
68987;SDS011;56038;46.080;11.116;2023-11-21T22:38:47;14.85;;;9.75;;
68987;SDS011;56038;46.080;11.116;2023-11-21T22:43:48;10.95;;;8.77;;
68987;SDS011;56038;46.080;11.116;2023-11-21T22:48:50;11.80;;;8.55;;
68987;SDS011;56038;46.080;11.116;2023-11-21T22:53:53;10.25;;;8.35;;
68987;SDS011;56038;46.080;11.116;2023-11-21T22:58:55;13.38;;;8.52;;
68987;SDS011;56038;46.080;11.116;2023-11-21T23:03:57;12.55;;;7.82;;
68987;SDS011;56038;46.080;11.116;2023-11-21T23:09:00;8.23;;;6.50;;
68987;SDS011;56038;46.080;11.116;2023-11-21T23:14:02;6.85;;;5.10;;
68987;SDS011;56038;46.080;11.116;2023-11-21T23:19:04;6.03;;;4.85;;
68987;SDS011;56038;46.080;11.116;2023-11-21T23:24:08;7.57;;;4.38;;
68987;SDS011;56038;46.080;11.116;2023-11-21T23:29:11;5.95;;;4.50;;
68987;SDS011;56038;46.080;11.116;2023-11-21T23:34:12;6.35;;;3.72;;
68987;SDS011;56038;46.080;11.116;2023-11-21T23:39:16;4.57;;;3.63;;
68987;SDS011;56038;46.080;11.116;2023-11-21T23:44:17;4.47;;;3.45;;
68987;SDS011;56038;46.080;11.116;2023-11-21T23:49:20;4.13;;;3.40;;
68987;SDS011;56038;46.080;11.116;2023-11-21T23:54:24;3.70;;;3.00;;
68987;SDS011;56038;46.080;11.116;2023-11-21T23:59:25;3.92;;;2.90;;
